sensor_id;sensor_type;location;lat;lon;timestamp;temperature;humidity
34542;DHT22;20784;51.332;12.410;2024-03-23T00:56:04;11.30;99.90
34542;DHT22;20784;51.332;12.410;2024-03-23T00:58:30;11.30;99.90
34542;DHT22;20784;51.332;12.410;2024-03-23T01:00:56;11.20;99.90
34542;DHT22;20784;51.332;12.410;2024-03-23T01:03:21;11.20;99.90
34542;DHT22;20784;51.332;12.410;2024-03-23T01:05:47;11.20;99.90
34542;DHT22;20784;51.332;12.410;2024-03-23T01:08:14;11.20;99.90
34542;DHT22;20784;51.332;12.410;2024-03-23T01:10:40;11.20;99.90
34542;DHT22;20784;51.332;12.410;2024-03-23T01:13:05;11.30;99.90
34542;DHT22;20784;51.332;12.410;2024-03-23T01:15:31;11.30;99.90
34542;DHT22;20784;51.332;12.410;2024-03-23T01:17:57;11.20;99.90
34542;DHT22;20784;51.332;12.410;2024-03-23T01:20:22;11.20;99.90
34542;DHT22;20784;51.332;12.410;2024-03-23T01:22:48;11.10;99.90
34542;DHT22;20784;51.332;12.410;2024-03-23T01:25:13;11.10;99.90
34542;DHT22;20784;51.332;12.410;2024-03-23T01:27:39;11.10;99.90
34542;DHT22;20784;51.332;12.410;2024-03-23T01:30:08;11.10;99.90
34542;DHT22;20784;51.332;12.410;2024-03-23T01:32:34;11.10;99.90
34542;DHT22;20784;51.332;12.410;2024-03-23T01:35:00;11.10;99.90
34542;DHT22;20784;51.332;12.410;2024-03-23T01:37:25;11.00;99.90
34542;DHT22;20784;51.332;12.410;2024-03-23T01:39:51;10.90;99.90
34542;DHT22;20784;51.332;12.410;2024-03-23T01:42:17;11.00;99.90
34542;DHT22;20784;51.332;12.410;2024-03-23T01:44:42;11.00;99.90
34542;DHT22;20784;51.332;12.410;2024-03-23T01:47:08;10.90;99.90
34542;DHT22;20784;51.332;12.410;2024-03-23T01:49:35;10.80;99.90
34542;DHT22;20784;51.332;12.410;2024-03-23T01:52:00;10.70;99.90
34542;DHT22;20784;51.332;12.410;2024-03-23T01:54:27;10.80;99.90
34542;DHT22;20784;51.332;12.410;2024-03-23T01:56:53;10.80;99.90
34542;DHT22;20784;51.332;12.410;2024-03-23T01:59:19;10.80;99.90
34542;DHT22;20784;51.332;12.410;2024-03-23T02:01:45;10.80;99.90
34542;DHT22;20784;51.332;12.410;2024-03-23T02:04:10;10.80;99.90
34542;DHT22;20784;51.332;12.410;2024-03-23T02:06:36;10.90;99.90
34542;DHT22;20784;51.332;12.410;2024-03-23T02:09:02;10.80;99.90
34542;DHT22;20784;51.332;12.410;2024-03-23T02:11:29;10.80;99.90
34542;DHT22;20784;51.332;12.410;2024-03-23T02:13:54;10.80;99.90
34542;DHT22;20784;51.332;12.410;2024-03-23T02:16:20;10.80;99.90
34542;DHT22;20784;51.332;12.410;2024-03-23T02:18:46;10.80;99.90
34542;DHT22;20784;51.332;12.410;2024-03-23T02:21:11;10.70;99.90
34542;DHT22;20784;51.332;12.410;2024-03-23T02:23:37;10.60;99.90
34542;DHT22;20784;51.332;12.410;2024-03-23T02:26:02;10.50;99.90
34542;DHT22;20784;51.332;12.410;2024-03-23T02:28:28;10.50;99.90
34542;DHT22;20784;51.332;12.410;2024-03-23T02:30:54;10.40;99.90
34542;DHT22;20784;51.332;12.410;2024-03-23T02:33:19;10.40;99.90
34542;DHT22;20784;51.332;12.410;2024-03-23T02:35:47;10.30;99.90
34542;DHT22;20784;51.332;12.410;2024-03-23T02:38:13;10.20;99.90
34542;DHT22;20784;51.332;12.410;2024-03-23T02:40:41;10.20;99.90
34542;DHT22;20784;51.332;12.410;2024-03-23T02:43:07;10.20;99.90
34542;DHT22;20784;51.332;12.410;2024-03-23T02:45:32;10.20;99.90
34542;DHT22;20784;51.332;12.410;2024-03-23T02:47:58;10.30;99.90
34542;DHT22;20784;51.332;12.410;2024-03-23T02:50:23;10.20;99.90
34542;DHT22;20784;51.332;12.410;2024-03-23T02:52:49;10.20;99.90
34542;DHT22;20784;51.332;12.410;2024-03-23T02:55:15;10.20;99.90
34542;DHT22;20784;51.332;12.410;2024-03-23T02:57:41;10.20;99.90
34542;DHT22;20784;51.332;12.410;2024-03-23T03:00:07;10.20;99.90
34542;DHT22;20784;51.332;12.410;2024-03-23T03:02:40;10.20;99.90
34542;DHT22;20784;51.332;12.410;2024-03-23T03:05:06;10.20;99.90
34542;DHT22;20784;51.332;12.410;2024-03-23T03:07:32;10.20;99.90
34542;DHT22;20784;51.332;12.410;2024-03-23T03:09:58;10.20;99.90
34542;DHT22;20784;51.332;12.410;2024-03-23T03:12:26;10.30;99.90
34542;DHT22;20784;51.332;12.410;2024-03-23T03:14:52;10.20;99.90
34542;DHT22;20784;51.332;12.410;2024-03-23T03:17:17;10.20;99.90
34542;DHT22;20784;51.332;12.410;2024-03-23T03:19:44;10.20;99.90
34542;DHT22;20784;51.332;12.410;2024-03-23T03:22:10;10.20;99.90
34542;DHT22;20784;51.332;12.410;2024-03-23T03:24:36;10.20;99.90
34542;DHT22;20784;51.332;12.410;2024-03-23T03:27:02;10.20;99.90
34542;DHT22;20784;51.332;12.410;2024-03-23T03:29:28;10.10;99.90
34542;DHT22;20784;51.332;12.410;2024-03-23T03:32:00;10.00;99.90
34542;DHT22;20784;51.332;12.410;2024-03-23T03:34:25;10.00;99.90
34542;DHT22;20784;51.332;12.410;2024-03-23T03:36:51;10.10;99.90
34542;DHT22;20784;51.332;12.410;2024-03-23T03:39:16;10.00;99.90
34542;DHT22;20784;51.332;12.410;2024-03-23T03:41:42;10.10;99.90
34542;DHT22;20784;51.332;12.410;2024-03-23T03:44:07;10.00;99.90
34542;DHT22;20784;51.332;12.410;2024-03-23T03:46:33;10.10;99.90
34542;DHT22;20784;51.332;12.410;2024-03-23T03:48:58;10.10;99.90
34542;DHT22;20784;51.332;12.410;2024-03-23T03:51:24;10.00;99.90
34542;DHT22;20784;51.332;12.410;2024-03-23T03:53:49;9.90;99.90
34542;DHT22;20784;51.332;12.410;2024-03-23T03:56:15;9.90;99.90
34542;DHT22;20784;51.332;12.410;2024-03-23T03:58:40;9.80;99.90
34542;DHT22;20784;51.332;12.410;2024-03-23T04:01:06;9.90;99.90
34542;DHT22;20784;51.332;12.410;2024-03-23T04:03:31;9.90;99.90
34542;DHT22;20784;51.332;12.410;2024-03-23T04:05:57;9.90;99.90
34542;DHT22;20784;51.332;12.410;2024-03-23T04:08:23;9.90;99.90
34542;DHT22;20784;51.332;12.410;2024-03-23T04:10:49;9.90;99.90
34542;DHT22;20784;51.332;12.410;2024-03-23T04:13:14;9.90;99.90
34542;DHT22;20784;51.332;12.410;2024-03-23T04:15:40;9.80;99.90
34542;DHT22;20784;51.332;12.410;2024-03-23T04:18:06;9.90;99.90
34542;DHT22;20784;51.332;12.410;2024-03-23T04:20:32;9.90;99.90
34542;DHT22;20784;51.332;12.410;2024-03-23T04:23:00;9.90;99.90
34542;DHT22;20784;51.332;12.410;2024-03-23T04:25:26;9.80;99.90
34542;DHT22;20784;51.332;12.410;2024-03-23T04:27:52;9.80;99.90
34542;DHT22;20784;51.332;12.410;2024-03-23T04:30:17;9.80;99.90
34542;DHT22;20784;51.332;12.410;2024-03-23T04:32:46;9.90;99.90
34542;DHT22;20784;51.332;12.410;2024-03-23T04:35:11;9.90;99.90
34542;DHT22;20784;51.332;12.410;2024-03-23T04:37:38;9.90;99.90
34542;DHT22;20784;51.332;12.410;2024-03-23T04:40:07;9.90;99.90
34542;DHT22;20784;51.332;12.410;2024-03-23T04:42:33;9.90;99.90
34542;DHT22;20784;51.332;12.410;2024-03-23T04:44:59;9.90;99.90
34542;DHT22;20784;51.332;12.410;2024-03-23T04:47:25;9.90;99.90
34542;DHT22;20784;51.332;12.410;2024-03-23T04:49:50;9.90;99.90
34542;DHT22;20784;51.332;12.410;2024-03-23T04:52:17;10.00;99.90
34542;DHT22;20784;51.332;12.410;2024-03-23T04:54:42;10.00;99.90
34542;DHT22;20784;51.332;12.410;2024-03-23T04:57:08;10.00;99.90
34542;DHT22;20784;51.332;12.410;2024-03-23T04:59:34;10.00;99.90
34542;DHT22;20784;51.332;12.410;2024-03-23T05:01:59;10.00;99.90
34542;DHT22;20784;51.332;12.410;2024-03-23T05:04:25;10.00;99.90
34542;DHT22;20784;51.332;12.410;2024-03-23T05:06:51;9.90;99.90
34542;DHT22;20784;51.332;12.410;2024-03-23T05:09:16;9.90;99.90
34542;DHT22;20784;51.332;12.410;2024-03-23T05:11:42;10.00;99.90
34542;DHT22;20784;51.332;12.410;2024-03-23T05:14:08;9.90;99.90
34542;DHT22;20784;51.332;12.410;2024-03-23T05:16:34;9.80;99.90
34542;DHT22;20784;51.332;12.410;2024-03-23T05:18:59;9.80;99.90
34542;DHT22;20784;51.332;12.410;2024-03-23T05:21:25;9.80;99.90
34542;DHT22;20784;51.332;12.410;2024-03-23T05:23:50;9.80;99.90
34542;DHT22;20784;51.332;12.410;2024-03-23T05:26:17;9.70;99.90
34542;DHT22;20784;51.332;12.410;2024-03-23T05:28:42;9.80;99.90
34542;DHT22;20784;51.332;12.410;2024-03-23T05:31:08;9.80;99.90
34542;DHT22;20784;51.332;12.410;2024-03-23T05:33:36;9.80;99.90
34542;DHT22;20784;51.332;12.410;2024-03-23T05:36:04;9.80;99.90
34542;DHT22;20784;51.332;12.410;2024-03-23T05:38:30;9.80;99.90
34542;DHT22;20784;51.332;12.410;2024-03-23T05:40:56;9.80;99.90
34542;DHT22;20784;51.332;12.410;2024-03-23T05:43:23;9.70;99.90
34542;DHT22;20784;51.332;12.410;2024-03-23T05:45:55;9.80;99.90
34542;DHT22;20784;51.332;12.410;2024-03-23T05:48:21;9.80;99.90
34542;DHT22;20784;51.332;12.410;2024-03-23T05:50:48;9.80;99.90
34542;DHT22;20784;51.332;12.410;2024-03-23T05:53:15;9.80;99.90
34542;DHT22;20784;51.332;12.410;2024-03-23T05:55:41;9.70;99.90
34542;DHT22;20784;51.332;12.410;2024-03-23T05:58:06;9.80;99.90
34542;DHT22;20784;51.332;12.410;2024-03-23T06:00:32;9.70;99.90
34542;DHT22;20784;51.332;12.410;2024-03-23T06:02:57;9.70;99.90
34542;DHT22;20784;51.332;12.410;2024-03-23T06:05:23;9.70;99.90
34542;DHT22;20784;51.332;12.410;2024-03-23T06:07:49;9.70;99.90
34542;DHT22;20784;51.332;12.410;2024-03-23T06:10:15;9.70;99.90
34542;DHT22;20784;51.332;12.410;2024-03-23T06:12:40;9.70;99.90
34542;DHT22;20784;51.332;12.410;2024-03-23T06:15:07;9.70;99.90
34542;DHT22;20784;51.332;12.410;2024-03-23T06:17:36;9.70;99.90
34542;DHT22;20784;51.332;12.410;2024-03-23T06:20:02;9.80;99.90
34542;DHT22;20784;51.332;12.410;2024-03-23T06:22:27;9.90;99.90
34542;DHT22;20784;51.332;12.410;2024-03-23T06:24:53;9.80;99.90
34542;DHT22;20784;51.332;12.410;2024-03-23T06:27:19;9.80;99.90
34542;DHT22;20784;51.332;12.410;2024-03-23T06:29:44;9.60;99.90
34542;DHT22;20784;51.332;12.410;2024-03-23T06:32:10;9.70;99.90
34542;DHT22;20784;51.332;12.410;2024-03-23T06:34:35;9.70;99.90
34542;DHT22;20784;51.332;12.410;2024-03-23T06:37:01;9.70;99.90
34542;DHT22;20784;51.332;12.410;2024-03-23T06:39:27;9.70;99.90
34542;DHT22;20784;51.332;12.410;2024-03-23T06:41:53;9.60;99.90
34542;DHT22;20784;51.332;12.410;2024-03-23T06:44:20;9.60;99.90
34542;DHT22;20784;51.332;12.410;2024-03-23T06:46:46;9.70;99.90
34542;DHT22;20784;51.332;12.410;2024-03-23T06:49:12;9.70;99.90
34542;DHT22;20784;51.332;12.410;2024-03-23T06:51:37;9.60;99.90
34542;DHT22;20784;51.332;12.410;2024-03-23T06:54:04;9.60;99.90
34542;DHT22;20784;51.332;12.410;2024-03-23T06:56:30;9.70;99.90
34542;DHT22;20784;51.332;12.410;2024-03-23T06:59:02;9.70;99.90
34542;DHT22;20784;51.332;12.410;2024-03-23T07:01:27;9.70;99.90
34542;DHT22;20784;51.332;12.410;2024-03-23T07:03:57;9.70;99.90
34542;DHT22;20784;51.332;12.410;2024-03-23T07:06:23;9.60;99.90
34542;DHT22;20784;51.332;12.410;2024-03-23T07:09:04;9.70;99.90
34542;DHT22;20784;51.332;12.410;2024-03-23T07:11:32;9.60;99.90
34542;DHT22;20784;51.332;12.410;2024-03-23T07:14:04;9.60;99.90
34542;DHT22;20784;51.332;12.410;2024-03-23T07:16:30;9.70;99.90
34542;DHT22;20784;51.332;12.410;2024-03-23T07:19:02;9.70;99.90
34542;DHT22;20784;51.332;12.410;2024-03-23T07:21:27;9.70;99.90
34542;DHT22;20784;51.332;12.410;2024-03-23T07:24:01;9.70;99.90
34542;DHT22;20784;51.332;12.410;2024-03-23T07:26:26;9.70;99.90
34542;DHT22;20784;51.332;12.410;2024-03-23T07:28:55;9.60;99.90
34542;DHT22;20784;51.332;12.410;2024-03-23T07:31:20;9.50;99.90
34542;DHT22;20784;51.332;12.410;2024-03-23T07:33:48;9.40;99.90
34542;DHT22;20784;51.332;12.410;2024-03-23T07:36:14;9.40;99.90
34542;DHT22;20784;51.332;12.410;2024-03-23T07:38:46;9.50;99.90
34542;DHT22;20784;51.332;12.410;2024-03-23T07:41:31;9.40;99.90
34542;DHT22;20784;51.332;12.410;2024-03-23T07:43:56;9.10;99.90
34542;DHT22;20784;51.332;12.410;2024-03-23T07:46:27;9.10;99.90
34542;DHT22;20784;51.332;12.410;2024-03-23T07:48:56;9.10;99.90
34542;DHT22;20784;51.332;12.410;2024-03-23T07:51:31;9.00;99.90
34542;DHT22;20784;51.332;12.410;2024-03-23T07:57:19;8.60;99.90
34542;DHT22;20784;51.332;12.410;2024-03-23T07:59:51;8.40;99.90
34542;DHT22;20784;51.332;12.410;2024-03-23T08:02:19;8.20;99.90
34542;DHT22;20784;51.332;12.410;2024-03-23T08:05:05;7.80;99.90
34542;DHT22;20784;51.332;12.410;2024-03-23T08:07:39;7.40;99.90
34542;DHT22;20784;51.332;12.410;2024-03-23T08:10:29;7.10;99.90
34542;DHT22;20784;51.332;12.410;2024-03-23T08:13:00;6.80;99.90
34542;DHT22;20784;51.332;12.410;2024-03-23T08:15:37;6.70;99.90
34542;DHT22;20784;51.332;12.410;2024-03-23T08:18:03;6.60;99.90
34542;DHT22;20784;51.332;12.410;2024-03-23T08:20:40;6.50;99.90
34542;DHT22;20784;51.332;12.410;2024-03-23T08:23:11;6.60;99.90
34542;DHT22;20784;51.332;12.410;2024-03-23T08:25:40;6.30;99.90
34542;DHT22;20784;51.332;12.410;2024-03-23T08:28:05;6.20;99.90
34542;DHT22;20784;51.332;12.410;2024-03-23T08:30:35;6.30;99.90
34542;DHT22;20784;51.332;12.410;2024-03-23T08:33:02;6.20;99.90
34542;DHT22;20784;51.332;12.410;2024-03-23T08:35:31;6.10;99.90
34542;DHT22;20784;51.332;12.410;2024-03-23T08:37:56;6.20;99.90
34542;DHT22;20784;51.332;12.410;2024-03-23T08:40:22;6.10;99.90
34542;DHT22;20784;51.332;12.410;2024-03-23T08:46:16;6.00;99.90
34542;DHT22;20784;51.332;12.410;2024-03-23T08:49:06;5.90;99.90
34542;DHT22;20784;51.332;12.410;2024-03-23T08:58:07;5.60;99.90
34542;DHT22;20784;51.332;12.410;2024-03-23T09:00:41;5.60;99.90
34542;DHT22;20784;51.332;12.410;2024-03-23T09:03:24;5.70;99.90
34542;DHT22;20784;51.332;12.410;2024-03-23T09:05:53;5.70;99.90
34542;DHT22;20784;51.332;12.410;2024-03-23T09:08:27;5.70;99.90
34542;DHT22;20784;51.332;12.410;2024-03-23T09:10:53;5.70;99.90
34542;DHT22;20784;51.332;12.410;2024-03-23T09:13:19;5.80;99.90
34542;DHT22;20784;51.332;12.410;2024-03-23T09:15:51;5.80;99.90
34542;DHT22;20784;51.332;12.410;2024-03-23T09:18:22;5.90;99.90
34542;DHT22;20784;51.332;12.410;2024-03-23T09:20:47;5.90;99.90
34542;DHT22;20784;51.332;12.410;2024-03-23T09:23:13;6.10;99.90
34542;DHT22;20784;51.332;12.410;2024-03-23T09:25:39;6.10;99.90
34542;DHT22;20784;51.332;12.410;2024-03-23T09:28:05;6.30;99.90
34542;DHT22;20784;51.332;12.410;2024-03-23T09:30:32;6.40;99.90
34542;DHT22;20784;51.332;12.410;2024-03-23T09:33:02;6.50;99.90
34542;DHT22;20784;51.332;12.410;2024-03-23T09:35:28;6.60;99.90
34542;DHT22;20784;51.332;12.410;2024-03-23T09:37:53;6.80;99.90
34542;DHT22;20784;51.332;12.410;2024-03-23T09:40:20;6.90;99.90
34542;DHT22;20784;51.332;12.410;2024-03-23T09:42:52;7.00;99.90
34542;DHT22;20784;51.332;12.410;2024-03-23T09:45:27;6.90;99.90
34542;DHT22;20784;51.332;12.410;2024-03-23T09:47:53;6.90;99.90
34542;DHT22;20784;51.332;12.410;2024-03-23T09:50:18;6.90;99.90
34542;DHT22;20784;51.332;12.410;2024-03-23T09:52:47;6.80;99.90
34542;DHT22;20784;51.332;12.410;2024-03-23T09:55:13;6.70;99.90
34542;DHT22;20784;51.332;12.410;2024-03-23T09:57:44;6.60;99.90
34542;DHT22;20784;51.332;12.410;2024-03-23T10:00:10;6.70;99.90
34542;DHT22;20784;51.332;12.410;2024-03-23T10:02:37;6.80;99.90
34542;DHT22;20784;51.332;12.410;2024-03-23T10:05:03;6.80;99.90
34542;DHT22;20784;51.332;12.410;2024-03-23T10:07:29;6.80;99.90
34542;DHT22;20784;51.332;12.410;2024-03-23T10:09:55;6.80;99.90
34542;DHT22;20784;51.332;12.410;2024-03-23T10:12:21;6.80;99.90
34542;DHT22;20784;51.332;12.410;2024-03-23T10:14:47;6.70;99.90
34542;DHT22;20784;51.332;12.410;2024-03-23T10:17:20;6.70;99.90
34542;DHT22;20784;51.332;12.410;2024-03-23T10:19:50;6.60;99.90
34542;DHT22;20784;51.332;12.410;2024-03-23T10:22:23;6.70;99.90
34542;DHT22;20784;51.332;12.410;2024-03-23T10:24:50;6.60;99.90
34542;DHT22;20784;51.332;12.410;2024-03-23T10:27:18;6.50;99.90
34542;DHT22;20784;51.332;12.410;2024-03-23T10:29:50;6.60;99.90
34542;DHT22;20784;51.332;12.410;2024-03-23T10:32:17;6.60;99.90
34542;DHT22;20784;51.332;12.410;2024-03-23T10:34:43;6.60;99.90
34542;DHT22;20784;51.332;12.410;2024-03-23T10:37:10;6.50;99.90
34542;DHT22;20784;51.332;12.410;2024-03-23T10:39:54;6.40;99.90
34542;DHT22;20784;51.332;12.410;2024-03-23T10:42:23;6.40;99.90
34542;DHT22;20784;51.332;12.410;2024-03-23T10:44:49;6.40;99.90
34542;DHT22;20784;51.332;12.410;2024-03-23T10:47:16;6.50;99.90
34542;DHT22;20784;51.332;12.410;2024-03-23T10:49:41;6.50;99.90
34542;DHT22;20784;51.332;12.410;2024-03-23T10:52:07;6.30;99.90
34542;DHT22;20784;51.332;12.410;2024-03-23T10:54:33;6.30;99.90
34542;DHT22;20784;51.332;12.410;2024-03-23T10:57:18;6.40;99.90
34542;DHT22;20784;51.332;12.410;2024-03-23T10:59:45;6.20;99.90
34542;DHT22;20784;51.332;12.410;2024-03-23T11:02:21;6.30;99.90
34542;DHT22;20784;51.332;12.410;2024-03-23T11:04:47;6.20;99.90
34542;DHT22;20784;51.332;12.410;2024-03-23T11:07:38;6.10;99.90
34542;DHT22;20784;51.332;12.410;2024-03-23T11:12:50;6.20;99.90
34542;DHT22;20784;51.332;12.410;2024-03-23T11:15:15;6.40;99.90
34542;DHT22;20784;51.332;12.410;2024-03-23T11:17:41;6.30;99.90
34542;DHT22;20784;51.332;12.410;2024-03-23T11:20:07;6.40;99.90
34542;DHT22;20784;51.332;12.410;2024-03-23T11:22:38;6.50;99.90
34542;DHT22;20784;51.332;12.410;2024-03-23T11:25:20;6.60;99.90
34542;DHT22;20784;51.332;12.410;2024-03-23T11:27:47;6.70;99.90
34542;DHT22;20784;51.332;12.410;2024-03-23T11:30:23;6.70;99.90
34542;DHT22;20784;51.332;12.410;2024-03-23T11:32:51;6.80;99.90
34542;DHT22;20784;51.332;12.410;2024-03-23T11:35:39;6.90;99.90
34542;DHT22;20784;51.332;12.410;2024-03-23T11:38:18;7.00;99.90
34542;DHT22;20784;51.332;12.410;2024-03-23T11:40:50;7.20;99.90
34542;DHT22;20784;51.332;12.410;2024-03-23T11:43:18;7.30;99.90
34542;DHT22;20784;51.332;12.410;2024-03-23T11:45:48;7.50;99.90
34542;DHT22;20784;51.332;12.410;2024-03-23T11:48:19;7.70;99.90
34542;DHT22;20784;51.332;12.410;2024-03-23T11:50:49;8.20;99.90
34542;DHT22;20784;51.332;12.410;2024-03-23T11:53:28;8.60;99.90
34542;DHT22;20784;51.332;12.410;2024-03-23T11:56:07;9.30;99.90
34542;DHT22;20784;51.332;12.410;2024-03-23T11:58:35;10.30;99.90
34542;DHT22;20784;51.332;12.410;2024-03-23T12:01:12;11.10;99.90
34542;DHT22;20784;51.332;12.410;2024-03-23T12:03:44;11.70;99.90
34542;DHT22;20784;51.332;12.410;2024-03-23T12:06:10;12.10;99.90
34542;DHT22;20784;51.332;12.410;2024-03-23T12:08:46;12.00;99.90
34542;DHT22;20784;51.332;12.410;2024-03-23T12:11:16;12.20;99.90
34542;DHT22;20784;51.332;12.410;2024-03-23T12:13:50;12.40;99.90
34542;DHT22;20784;51.332;12.410;2024-03-23T12:16:20;12.80;99.90
34542;DHT22;20784;51.332;12.410;2024-03-23T12:18:49;13.10;99.90
34542;DHT22;20784;51.332;12.410;2024-03-23T12:21:16;13.40;99.90
34542;DHT22;20784;51.332;12.410;2024-03-23T12:23:43;13.60;99.90
34542;DHT22;20784;51.332;12.410;2024-03-23T12:26:10;13.70;99.90
34542;DHT22;20784;51.332;12.410;2024-03-23T12:28:41;13.80;99.90
34542;DHT22;20784;51.332;12.410;2024-03-23T12:31:07;13.70;99.90
34542;DHT22;20784;51.332;12.410;2024-03-23T12:33:33;13.60;99.90
34542;DHT22;20784;51.332;12.410;2024-03-23T12:35:58;13.30;99.90
34542;DHT22;20784;51.332;12.410;2024-03-23T12:38:33;12.70;99.90
34542;DHT22;20784;51.332;12.410;2024-03-23T12:41:02;12.80;99.90
34542;DHT22;20784;51.332;12.410;2024-03-23T12:43:30;12.90;99.90
34542;DHT22;20784;51.332;12.410;2024-03-23T12:46:00;13.10;99.90
34542;DHT22;20784;51.332;12.410;2024-03-23T12:48:26;13.20;99.90
34542;DHT22;20784;51.332;12.410;2024-03-23T12:50:57;13.30;99.90
34542;DHT22;20784;51.332;12.410;2024-03-23T12:53:23;13.60;99.90
34542;DHT22;20784;51.332;12.410;2024-03-23T12:55:49;13.90;99.90
34542;DHT22;20784;51.332;12.410;2024-03-23T12:58:17;14.10;99.90
34542;DHT22;20784;51.332;12.410;2024-03-23T13:00:42;14.40;99.90
34542;DHT22;20784;51.332;12.410;2024-03-23T13:03:16;14.50;99.90
34542;DHT22;20784;51.332;12.410;2024-03-23T13:05:42;14.50;99.90
34542;DHT22;20784;51.332;12.410;2024-03-23T13:08:28;14.10;99.90
34542;DHT22;20784;51.332;12.410;2024-03-23T13:10:56;13.50;99.90
34542;DHT22;20784;51.332;12.410;2024-03-23T13:13:22;13.00;99.90
34542;DHT22;20784;51.332;12.410;2024-03-23T13:15:51;13.20;99.90
34542;DHT22;20784;51.332;12.410;2024-03-23T13:18:17;13.20;99.90
34542;DHT22;20784;51.332;12.410;2024-03-23T13:20:42;13.40;99.90
34542;DHT22;20784;51.332;12.410;2024-03-23T13:23:11;13.60;99.90
34542;DHT22;20784;51.332;12.410;2024-03-23T13:25:39;13.90;99.90
34542;DHT22;20784;51.332;12.410;2024-03-23T13:28:07;13.80;99.90
34542;DHT22;20784;51.332;12.410;2024-03-23T13:30:39;13.60;99.90
34542;DHT22;20784;51.332;12.410;2024-03-23T13:33:07;13.40;99.90
34542;DHT22;20784;51.332;12.410;2024-03-23T13:35:58;12.90;99.90
34542;DHT22;20784;51.332;12.410;2024-03-23T13:38:30;13.10;99.90
34542;DHT22;20784;51.332;12.410;2024-03-23T13:40:57;13.00;99.90
34542;DHT22;20784;51.332;12.410;2024-03-23T13:43:24;12.70;99.90
34542;DHT22;20784;51.332;12.410;2024-03-23T13:45:57;12.70;99.90
34542;DHT22;20784;51.332;12.410;2024-03-23T13:48:24;12.70;99.90
34542;DHT22;20784;51.332;12.410;2024-03-23T13:51:00;12.50;99.90
34542;DHT22;20784;51.332;12.410;2024-03-23T13:53:25;12.30;99.90
34542;DHT22;20784;51.332;12.410;2024-03-23T13:55:51;12.00;99.90
34542;DHT22;20784;51.332;12.410;2024-03-23T13:58:17;11.90;99.90
34542;DHT22;20784;51.332;12.410;2024-03-23T14:00:42;11.60;99.90
34542;DHT22;20784;51.332;12.410;2024-03-23T14:03:09;11.50;99.90
34542;DHT22;20784;51.332;12.410;2024-03-23T14:05:34;11.30;99.90
34542;DHT22;20784;51.332;12.410;2024-03-23T14:08:00;10.80;99.90
34542;DHT22;20784;51.332;12.410;2024-03-23T14:10:26;10.60;99.90
34542;DHT22;20784;51.332;12.410;2024-03-23T14:12:54;10.10;99.90
34542;DHT22;20784;51.332;12.410;2024-03-23T14:15:20;9.70;99.90
34542;DHT22;20784;51.332;12.410;2024-03-23T14:17:45;9.30;99.90
34542;DHT22;20784;51.332;12.410;2024-03-23T14:20:11;9.30;99.90
34542;DHT22;20784;51.332;12.410;2024-03-23T14:22:38;9.40;99.90
34542;DHT22;20784;51.332;12.410;2024-03-23T14:25:07;9.60;99.90
34542;DHT22;20784;51.332;12.410;2024-03-23T14:27:32;9.70;99.90
34542;DHT22;20784;51.332;12.410;2024-03-23T14:30:03;9.90;99.90
34542;DHT22;20784;51.332;12.410;2024-03-23T14:32:29;10.10;99.90
34542;DHT22;20784;51.332;12.410;2024-03-23T14:35:08;10.10;99.90
34542;DHT22;20784;51.332;12.410;2024-03-23T14:37:36;10.10;99.90
34542;DHT22;20784;51.332;12.410;2024-03-23T14:40:03;9.90;99.90
34542;DHT22;20784;51.332;12.410;2024-03-23T14:42:29;9.70;99.90
34542;DHT22;20784;51.332;12.410;2024-03-23T14:44:56;9.40;99.90
34542;DHT22;20784;51.332;12.410;2024-03-23T14:47:22;9.20;99.90
34542;DHT22;20784;51.332;12.410;2024-03-23T14:49:50;8.90;99.90
34542;DHT22;20784;51.332;12.410;2024-03-23T14:52:17;8.80;99.90
34542;DHT22;20784;51.332;12.410;2024-03-23T14:54:44;8.70;99.90
34542;DHT22;20784;51.332;12.410;2024-03-23T14:57:09;8.70;99.90
34542;DHT22;20784;51.332;12.410;2024-03-23T14:59:35;8.50;99.90
34542;DHT22;20784;51.332;12.410;2024-03-23T15:02:04;8.30;99.90
34542;DHT22;20784;51.332;12.410;2024-03-23T15:04:29;8.10;99.90
34542;DHT22;20784;51.332;12.410;2024-03-23T15:06:57;8.00;99.90
34542;DHT22;20784;51.332;12.410;2024-03-23T15:09:23;8.00;99.90
34542;DHT22;20784;51.332;12.410;2024-03-23T15:11:51;7.90;99.90
34542;DHT22;20784;51.332;12.410;2024-03-23T15:14:23;7.70;99.90
34542;DHT22;20784;51.332;12.410;2024-03-23T15:16:48;7.60;99.90
34542;DHT22;20784;51.332;12.410;2024-03-23T15:19:26;7.60;99.90
34542;DHT22;20784;51.332;12.410;2024-03-23T15:22:00;7.60;99.90
34542;DHT22;20784;51.332;12.410;2024-03-23T15:24:48;7.80;99.90
34542;DHT22;20784;51.332;12.410;2024-03-23T15:27:14;8.00;99.90
34542;DHT22;20784;51.332;12.410;2024-03-23T15:29:59;8.40;99.90
34542;DHT22;20784;51.332;12.410;2024-03-23T15:32:30;8.40;99.90
34542;DHT22;20784;51.332;12.410;2024-03-23T15:35:01;8.60;99.90
34542;DHT22;20784;51.332;12.410;2024-03-23T15:37:34;8.70;99.90
34542;DHT22;20784;51.332;12.410;2024-03-23T15:40:02;8.70;99.90
34542;DHT22;20784;51.332;12.410;2024-03-23T15:42:29;8.80;99.90
34542;DHT22;20784;51.332;12.410;2024-03-23T15:44:54;8.80;99.90
34542;DHT22;20784;51.332;12.410;2024-03-23T15:47:22;8.80;99.90
34542;DHT22;20784;51.332;12.410;2024-03-23T15:49:52;8.90;99.90
34542;DHT22;20784;51.332;12.410;2024-03-23T15:52:29;8.90;99.90
34542;DHT22;20784;51.332;12.410;2024-03-23T15:55:09;8.80;99.90
34542;DHT22;20784;51.332;12.410;2024-03-23T15:57:44;8.80;99.90
34542;DHT22;20784;51.332;12.410;2024-03-23T16:00:18;8.70;99.90
34542;DHT22;20784;51.332;12.410;2024-03-23T16:02:44;8.90;99.90
34542;DHT22;20784;51.332;12.410;2024-03-23T16:05:11;8.80;99.90
34542;DHT22;20784;51.332;12.410;2024-03-23T16:07:37;8.80;99.90
34542;DHT22;20784;51.332;12.410;2024-03-23T16:10:05;8.70;99.90
34542;DHT22;20784;51.332;12.410;2024-03-23T16:12:34;8.70;99.90
34542;DHT22;20784;51.332;12.410;2024-03-23T16:15:08;8.80;99.90
34542;DHT22;20784;51.332;12.410;2024-03-23T16:17:42;8.90;99.90
34542;DHT22;20784;51.332;12.410;2024-03-23T16:20:28;9.00;99.90
34542;DHT22;20784;51.332;12.410;2024-03-23T16:23:05;8.90;99.90
34542;DHT22;20784;51.332;12.410;2024-03-23T16:26:01;8.90;99.90
34542;DHT22;20784;51.332;12.410;2024-03-23T16:28:43;8.90;99.90
34542;DHT22;20784;51.332;12.410;2024-03-23T16:31:14;8.90;99.90
34542;DHT22;20784;51.332;12.410;2024-03-23T16:33:46;8.80;99.90
34542;DHT22;20784;51.332;12.410;2024-03-23T16:36:15;8.80;99.90
34542;DHT22;20784;51.332;12.410;2024-03-23T16:38:50;8.70;99.90
34542;DHT22;20784;51.332;12.410;2024-03-23T16:41:18;8.70;99.90
34542;DHT22;20784;51.332;12.410;2024-03-23T16:43:47;8.60;99.90